sensor_id;sensor_type;location;lat;lon;timestamp;P1;durP1;ratioP1;P2;durP2;ratioP2
14933;SDS011;7560;51.364;12.384;2023-08-20T00:03:50;10.48;;;6.72;;
14933;SDS011;7560;51.364;12.384;2023-08-20T00:08:53;9.45;;;7.00;;
14933;SDS011;7560;51.364;12.384;2023-08-20T00:13:55;9.68;;;6.90;;
14933;SDS011;7560;51.364;12.384;2023-08-20T00:18:57;10.63;;;6.88;;
14933;SDS011;7560;51.364;12.384;2023-08-20T00:23:59;8.45;;;6.85;;
14933;SDS011;7560;51.364;12.384;2023-08-20T00:29:01;12.98;;;7.40;;
14933;SDS011;7560;51.364;12.384;2023-08-20T00:34:03;13.65;;;7.28;;
14933;SDS011;7560;51.364;12.384;2023-08-20T00:39:08;12.15;;;7.07;;
14933;SDS011;7560;51.364;12.384;2023-08-20T00:44:09;12.27;;;7.07;;
14933;SDS011;7560;51.364;12.384;2023-08-20T00:49:11;10.52;;;7.47;;
14933;SDS011;7560;51.364;12.384;2023-08-20T00:54:13;13.50;;;7.55;;
14933;SDS011;7560;51.364;12.384;2023-08-20T00:59:16;11.50;;;7.80;;
14933;SDS011;7560;51.364;12.384;2023-08-20T01:04:18;11.05;;;7.38;;
14933;SDS011;7560;51.364;12.384;2023-08-20T01:14:30;16.15;;;7.63;;
14933;SDS011;7560;51.364;12.384;2023-08-20T01:19:31;8.63;;;7.30;;
14933;SDS011;7560;51.364;12.384;2023-08-20T01:24:44;10.27;;;7.10;;
14933;SDS011;7560;51.364;12.384;2023-08-20T01:30:05;11.52;;;7.43;;
14933;SDS011;7560;51.364;12.384;2023-08-20T01:35:14;10.98;;;7.90;;
14933;SDS011;7560;51.364;12.384;2023-08-20T01:40:18;11.02;;;8.35;;
14933;SDS011;7560;51.364;12.384;2023-08-20T01:45:19;16.23;;;9.88;;
14933;SDS011;7560;51.364;12.384;2023-08-20T01:50:22;19.50;;;10.15;;
14933;SDS011;7560;51.364;12.384;2023-08-20T01:55:24;17.73;;;11.63;;
14933;SDS011;7560;51.364;12.384;2023-08-20T02:00:26;14.85;;;10.70;;
14933;SDS011;7560;51.364;12.384;2023-08-20T02:05:30;17.50;;;12.48;;
14933;SDS011;7560;51.364;12.384;2023-08-20T02:10:31;17.15;;;12.98;;
14933;SDS011;7560;51.364;12.384;2023-08-20T02:15:33;22.98;;;14.07;;
14933;SDS011;7560;51.364;12.384;2023-08-20T02:20:35;17.38;;;14.15;;
14933;SDS011;7560;51.364;12.384;2023-08-20T02:25:37;19.17;;;15.48;;
14933;SDS011;7560;51.364;12.384;2023-08-20T02:30:42;26.05;;;16.30;;
14933;SDS011;7560;51.364;12.384;2023-08-20T02:35:45;21.17;;;16.40;;
14933;SDS011;7560;51.364;12.384;2023-08-20T02:40:47;18.58;;;15.85;;
14933;SDS011;7560;51.364;12.384;2023-08-20T02:45:48;20.98;;;15.93;;
14933;SDS011;7560;51.364;12.384;2023-08-20T02:50:50;22.58;;;15.93;;
14933;SDS011;7560;51.364;12.384;2023-08-20T02:55:52;21.05;;;16.13;;
14933;SDS011;7560;51.364;12.384;2023-08-20T03:00:54;21.52;;;16.63;;
14933;SDS011;7560;51.364;12.384;2023-08-20T03:05:56;21.60;;;17.27;;
14933;SDS011;7560;51.364;12.384;2023-08-20T03:10:58;21.17;;;16.85;;
14933;SDS011;7560;51.364;12.384;2023-08-20T03:15:59;24.08;;;16.55;;
14933;SDS011;7560;51.364;12.384;2023-08-20T03:21:01;23.17;;;16.58;;
14933;SDS011;7560;51.364;12.384;2023-08-20T03:26:04;26.70;;;16.75;;
14933;SDS011;7560;51.364;12.384;2023-08-20T03:31:05;24.15;;;17.65;;
14933;SDS011;7560;51.364;12.384;2023-08-20T03:36:07;23.88;;;16.92;;
14933;SDS011;7560;51.364;12.384;2023-08-20T03:41:09;22.42;;;16.45;;
14933;SDS011;7560;51.364;12.384;2023-08-20T03:46:11;21.00;;;16.65;;
14933;SDS011;7560;51.364;12.384;2023-08-20T03:51:12;20.52;;;16.70;;
14933;SDS011;7560;51.364;12.384;2023-08-20T03:56:14;21.35;;;16.60;;
14933;SDS011;7560;51.364;12.384;2023-08-20T04:01:16;21.38;;;16.48;;
14933;SDS011;7560;51.364;12.384;2023-08-20T04:06:18;31.10;;;20.33;;
14933;SDS011;7560;51.364;12.384;2023-08-20T04:11:20;28.25;;;21.08;;
14933;SDS011;7560;51.364;12.384;2023-08-20T04:16:22;33.45;;;23.73;;
14933;SDS011;7560;51.364;12.384;2023-08-20T04:21:24;36.45;;;25.63;;
14933;SDS011;7560;51.364;12.384;2023-08-20T04:26:26;43.78;;;28.67;;
14933;SDS011;7560;51.364;12.384;2023-08-20T04:31:27;41.08;;;28.45;;
14933;SDS011;7560;51.364;12.384;2023-08-20T04:36:29;44.78;;;29.58;;
14933;SDS011;7560;51.364;12.384;2023-08-20T04:41:31;48.13;;;29.70;;
14933;SDS011;7560;51.364;12.384;2023-08-20T04:46:33;51.72;;;32.10;;
14933;SDS011;7560;51.364;12.384;2023-08-20T04:51:34;51.60;;;32.88;;
14933;SDS011;7560;51.364;12.384;2023-08-20T04:56:36;51.17;;;32.10;;
14933;SDS011;7560;51.364;12.384;2023-08-20T05:01:38;51.47;;;32.65;;
14933;SDS011;7560;51.364;12.384;2023-08-20T05:06:40;48.60;;;32.00;;
14933;SDS011;7560;51.364;12.384;2023-08-20T05:11:42;49.08;;;31.35;;
14933;SDS011;7560;51.364;12.384;2023-08-20T05:16:44;43.00;;;29.73;;
14933;SDS011;7560;51.364;12.384;2023-08-20T05:21:45;43.13;;;28.15;;
14933;SDS011;7560;51.364;12.384;2023-08-20T05:26:50;43.05;;;29.25;;
14933;SDS011;7560;51.364;12.384;2023-08-20T05:32:07;42.10;;;28.13;;
14933;SDS011;7560;51.364;12.384;2023-08-20T05:37:09;43.55;;;29.42;;
14933;SDS011;7560;51.364;12.384;2023-08-20T05:42:11;52.78;;;32.40;;
14933;SDS011;7560;51.364;12.384;2023-08-20T05:47:13;40.45;;;28.63;;
14933;SDS011;7560;51.364;12.384;2023-08-20T05:52:15;39.60;;;28.05;;
14933;SDS011;7560;51.364;12.384;2023-08-20T05:57:16;37.25;;;26.95;;
14933;SDS011;7560;51.364;12.384;2023-08-20T06:02:18;32.25;;;23.80;;
14933;SDS011;7560;51.364;12.384;2023-08-20T06:07:20;33.08;;;22.55;;
14933;SDS011;7560;51.364;12.384;2023-08-20T06:12:22;28.50;;;20.27;;
14933;SDS011;7560;51.364;12.384;2023-08-20T06:17:24;28.50;;;20.80;;
14933;SDS011;7560;51.364;12.384;2023-08-20T06:22:26;24.92;;;19.52;;
14933;SDS011;7560;51.364;12.384;2023-08-20T06:27:28;28.98;;;19.58;;
14933;SDS011;7560;51.364;12.384;2023-08-20T06:32:29;26.70;;;18.88;;
14933;SDS011;7560;51.364;12.384;2023-08-20T06:37:31;24.13;;;18.23;;
14933;SDS011;7560;51.364;12.384;2023-08-20T06:42:34;23.52;;;17.73;;
14933;SDS011;7560;51.364;12.384;2023-08-20T06:47:38;23.90;;;16.75;;
14933;SDS011;7560;51.364;12.384;2023-08-20T06:52:40;22.17;;;16.25;;
14933;SDS011;7560;51.364;12.384;2023-08-20T06:57:42;22.98;;;16.05;;
14933;SDS011;7560;51.364;12.384;2023-08-20T07:02:44;21.98;;;17.45;;
14933;SDS011;7560;51.364;12.384;2023-08-20T07:07:46;23.48;;;16.70;;
14933;SDS011;7560;51.364;12.384;2023-08-20T07:12:48;21.67;;;16.05;;
14933;SDS011;7560;51.364;12.384;2023-08-20T07:17:50;21.75;;;16.63;;
14933;SDS011;7560;51.364;12.384;2023-08-20T07:22:51;19.95;;;14.65;;
14933;SDS011;7560;51.364;12.384;2023-08-20T07:27:53;18.25;;;14.98;;
14933;SDS011;7560;51.364;12.384;2023-08-20T07:33:00;15.57;;;13.10;;
14933;SDS011;7560;51.364;12.384;2023-08-20T07:38:06;14.50;;;11.60;;
14933;SDS011;7560;51.364;12.384;2023-08-20T07:43:07;13.25;;;11.00;;
14933;SDS011;7560;51.364;12.384;2023-08-20T07:48:09;14.50;;;11.07;;
14933;SDS011;7560;51.364;12.384;2023-08-20T07:53:11;11.95;;;10.50;;
14933;SDS011;7560;51.364;12.384;2023-08-20T07:58:13;14.63;;;11.77;;
14933;SDS011;7560;51.364;12.384;2023-08-20T08:03:14;14.05;;;11.07;;
14933;SDS011;7560;51.364;12.384;2023-08-20T08:08:18;11.02;;;9.80;;
14933;SDS011;7560;51.364;12.384;2023-08-20T08:13:22;11.75;;;9.35;;
14933;SDS011;7560;51.364;12.384;2023-08-20T08:18:24;11.25;;;8.50;;
14933;SDS011;7560;51.364;12.384;2023-08-20T08:23:26;11.48;;;8.35;;
14933;SDS011;7560;51.364;12.384;2023-08-20T08:28:27;11.15;;;7.80;;
14933;SDS011;7560;51.364;12.384;2023-08-20T08:33:29;7.93;;;6.35;;
14933;SDS011;7560;51.364;12.384;2023-08-20T08:38:31;9.18;;;7.15;;
14933;SDS011;7560;51.364;12.384;2023-08-20T08:43:33;9.27;;;6.90;;
14933;SDS011;7560;51.364;12.384;2023-08-20T08:48:35;8.85;;;7.15;;
14933;SDS011;7560;51.364;12.384;2023-08-20T08:53:37;9.40;;;7.70;;
14933;SDS011;7560;51.364;12.384;2023-08-20T08:58:39;13.38;;;7.32;;
14933;SDS011;7560;51.364;12.384;2023-08-20T09:03:41;8.45;;;6.93;;
14933;SDS011;7560;51.364;12.384;2023-08-20T09:08:43;8.38;;;7.25;;
14933;SDS011;7560;51.364;12.384;2023-08-20T09:13:44;10.23;;;7.35;;
14933;SDS011;7560;51.364;12.384;2023-08-20T09:18:46;9.63;;;8.00;;
14933;SDS011;7560;51.364;12.384;2023-08-20T09:23:48;10.05;;;8.30;;
14933;SDS011;7560;51.364;12.384;2023-08-20T09:28:50;10.02;;;7.97;;
14933;SDS011;7560;51.364;12.384;2023-08-20T09:33:55;10.73;;;7.95;;
14933;SDS011;7560;51.364;12.384;2023-08-20T09:38:58;12.13;;;9.00;;
14933;SDS011;7560;51.364;12.384;2023-08-20T09:44:01;10.27;;;8.93;;
14933;SDS011;7560;51.364;12.384;2023-08-20T09:49:05;9.70;;;8.70;;
14933;SDS011;7560;51.364;12.384;2023-08-20T09:54:19;9.70;;;8.43;;
14933;SDS011;7560;51.364;12.384;2023-08-20T09:59:24;10.68;;;8.30;;
14933;SDS011;7560;51.364;12.384;2023-08-20T10:04:27;8.80;;;7.80;;
14933;SDS011;7560;51.364;12.384;2023-08-20T10:09:30;9.93;;;8.02;;
14933;SDS011;7560;51.364;12.384;2023-08-20T10:14:32;8.50;;;7.47;;
14933;SDS011;7560;51.364;12.384;2023-08-20T10:19:38;8.40;;;7.50;;
14933;SDS011;7560;51.364;12.384;2023-08-20T10:24:49;10.73;;;7.90;;
14933;SDS011;7560;51.364;12.384;2023-08-20T10:29:53;9.05;;;7.30;;
14933;SDS011;7560;51.364;12.384;2023-08-20T10:34:56;8.38;;;7.50;;
14933;SDS011;7560;51.364;12.384;2023-08-20T10:39:59;8.77;;;7.38;;
14933;SDS011;7560;51.364;12.384;2023-08-20T10:45:07;7.75;;;6.95;;
14933;SDS011;7560;51.364;12.384;2023-08-20T10:50:11;7.97;;;7.18;;
14933;SDS011;7560;51.364;12.384;2023-08-20T10:55:21;9.77;;;6.88;;
14933;SDS011;7560;51.364;12.384;2023-08-20T11:00:24;7.13;;;6.43;;
14933;SDS011;7560;51.364;12.384;2023-08-20T11:05:26;7.13;;;6.45;;
14933;SDS011;7560;51.364;12.384;2023-08-20T11:10:28;7.50;;;6.70;;
14933;SDS011;7560;51.364;12.384;2023-08-20T11:15:30;8.45;;;7.10;;
14933;SDS011;7560;51.364;12.384;2023-08-20T11:20:32;7.55;;;6.75;;
14933;SDS011;7560;51.364;12.384;2023-08-20T11:25:33;9.00;;;7.13;;
14933;SDS011;7560;51.364;12.384;2023-08-20T11:30:35;10.95;;;7.32;;
14933;SDS011;7560;51.364;12.384;2023-08-20T11:35:37;9.13;;;7.88;;
14933;SDS011;7560;51.364;12.384;2023-08-20T11:40:39;8.52;;;7.40;;
14933;SDS011;7560;51.364;12.384;2023-08-20T11:45:44;7.85;;;6.95;;
14933;SDS011;7560;51.364;12.384;2023-08-20T11:50:47;7.80;;;6.97;;
14933;SDS011;7560;51.364;12.384;2023-08-20T11:55:49;10.75;;;7.30;;
14933;SDS011;7560;51.364;12.384;2023-08-20T12:00:51;8.65;;;7.00;;
14933;SDS011;7560;51.364;12.384;2023-08-20T12:05:53;8.60;;;7.22;;
14933;SDS011;7560;51.364;12.384;2023-08-20T12:10:54;7.78;;;6.97;;
14933;SDS011;7560;51.364;12.384;2023-08-20T12:15:59;8.15;;;7.35;;
14933;SDS011;7560;51.364;12.384;2023-08-20T12:21:01;8.52;;;7.40;;
14933;SDS011;7560;51.364;12.384;2023-08-20T12:26:03;8.52;;;6.80;;
14933;SDS011;7560;51.364;12.384;2023-08-20T12:31:05;7.18;;;6.47;;
14933;SDS011;7560;51.364;12.384;2023-08-20T12:36:07;7.57;;;6.57;;
14933;SDS011;7560;51.364;12.384;2023-08-20T12:41:08;9.05;;;6.82;;
14933;SDS011;7560;51.364;12.384;2023-08-20T12:46:10;7.05;;;6.32;;
14933;SDS011;7560;51.364;12.384;2023-08-20T12:51:14;10.50;;;7.60;;
14933;SDS011;7560;51.364;12.384;2023-08-20T12:56:18;7.32;;;6.65;;
14933;SDS011;7560;51.364;12.384;2023-08-20T13:01:20;9.25;;;7.07;;
14933;SDS011;7560;51.364;12.384;2023-08-20T13:06:21;7.65;;;6.88;;
14933;SDS011;7560;51.364;12.384;2023-08-20T13:11:24;6.95;;;6.05;;
14933;SDS011;7560;51.364;12.384;2023-08-20T13:16:27;8.73;;;6.65;;
14933;SDS011;7560;51.364;12.384;2023-08-20T13:21:30;7.25;;;6.47;;
14933;SDS011;7560;51.364;12.384;2023-08-20T13:26:32;8.25;;;6.60;;
14933;SDS011;7560;51.364;12.384;2023-08-20T13:31:34;9.60;;;7.53;;
14933;SDS011;7560;51.364;12.384;2023-08-20T13:36:37;8.95;;;8.05;;
14933;SDS011;7560;51.364;12.384;2023-08-20T13:41:40;7.85;;;7.05;;
14933;SDS011;7560;51.364;12.384;2023-08-20T13:46:42;9.45;;;6.78;;
14933;SDS011;7560;51.364;12.384;2023-08-20T13:51:44;8.27;;;6.70;;
14933;SDS011;7560;51.364;12.384;2023-08-20T13:56:46;7.65;;;6.82;;
14933;SDS011;7560;51.364;12.384;2023-08-20T14:01:48;7.43;;;6.30;;
14933;SDS011;7560;51.364;12.384;2023-08-20T14:06:50;7.97;;;6.40;;
14933;SDS011;7560;51.364;12.384;2023-08-20T14:11:52;9.32;;;6.63;;
14933;SDS011;7560;51.364;12.384;2023-08-20T14:16:53;6.50;;;5.75;;
14933;SDS011;7560;51.364;12.384;2023-08-20T14:21:55;7.07;;;5.68;;
14933;SDS011;7560;51.364;12.384;2023-08-20T14:26:57;7.13;;;5.35;;
14933;SDS011;7560;51.364;12.384;2023-08-20T14:31:58;6.85;;;6.25;;
14933;SDS011;7560;51.364;12.384;2023-08-20T14:37:00;5.68;;;5.20;;
14933;SDS011;7560;51.364;12.384;2023-08-20T14:42:02;9.30;;;5.97;;
14933;SDS011;7560;51.364;12.384;2023-08-20T14:47:04;6.15;;;5.65;;
14933;SDS011;7560;51.364;12.384;2023-08-20T14:52:06;5.80;;;5.30;;
14933;SDS011;7560;51.364;12.384;2023-08-20T14:57:20;6.38;;;5.60;;
14933;SDS011;7560;51.364;12.384;2023-08-20T15:02:21;6.95;;;5.28;;
14933;SDS011;7560;51.364;12.384;2023-08-20T15:07:23;6.22;;;5.38;;
14933;SDS011;7560;51.364;12.384;2023-08-20T15:12:25;7.13;;;5.82;;
14933;SDS011;7560;51.364;12.384;2023-08-20T15:17:27;6.80;;;5.40;;
14933;SDS011;7560;51.364;12.384;2023-08-20T15:22:29;6.22;;;5.20;;
14933;SDS011;7560;51.364;12.384;2023-08-20T15:27:30;5.35;;;4.82;;
14933;SDS011;7560;51.364;12.384;2023-08-20T15:32:32;6.72;;;5.47;;
14933;SDS011;7560;51.364;12.384;2023-08-20T15:37:34;7.70;;;5.40;;
14933;SDS011;7560;51.364;12.384;2023-08-20T15:42:37;7.15;;;5.45;;
14933;SDS011;7560;51.364;12.384;2023-08-20T15:47:40;7.82;;;5.38;;
14933;SDS011;7560;51.364;12.384;2023-08-20T15:52:42;6.07;;;5.10;;
14933;SDS011;7560;51.364;12.384;2023-08-20T15:57:44;6.10;;;5.50;;
14933;SDS011;7560;51.364;12.384;2023-08-20T16:02:46;7.63;;;5.93;;
14933;SDS011;7560;51.364;12.384;2023-08-20T16:07:48;9.25;;;5.43;;
14933;SDS011;7560;51.364;12.384;2023-08-20T16:12:50;6.07;;;5.38;;
14933;SDS011;7560;51.364;12.384;2023-08-20T16:17:52;6.03;;;5.45;;
14933;SDS011;7560;51.364;12.384;2023-08-20T16:22:56;7.60;;;6.35;;
14933;SDS011;7560;51.364;12.384;2023-08-20T16:27:58;6.35;;;5.20;;
14933;SDS011;7560;51.364;12.384;2023-08-20T16:33:00;6.65;;;5.88;;
14933;SDS011;7560;51.364;12.384;2023-08-20T16:38:01;8.23;;;5.40;;
14933;SDS011;7560;51.364;12.384;2023-08-20T16:43:06;7.07;;;5.55;;
14933;SDS011;7560;51.364;12.384;2023-08-20T16:48:09;8.57;;;5.70;;
14933;SDS011;7560;51.364;12.384;2023-08-20T16:53:12;8.82;;;6.15;;
14933;SDS011;7560;51.364;12.384;2023-08-20T16:58:13;17.52;;;10.45;;
14933;SDS011;7560;51.364;12.384;2023-08-20T17:03:15;12.40;;;7.35;;
14933;SDS011;7560;51.364;12.384;2023-08-20T17:08:18;12.60;;;7.90;;
14933;SDS011;7560;51.364;12.384;2023-08-20T17:13:20;6.88;;;6.18;;
14933;SDS011;7560;51.364;12.384;2023-08-20T17:18:22;8.30;;;6.00;;
14933;SDS011;7560;51.364;12.384;2023-08-20T17:23:24;6.93;;;5.93;;
14933;SDS011;7560;51.364;12.384;2023-08-20T17:28:27;6.97;;;5.75;;
14933;SDS011;7560;51.364;12.384;2023-08-20T17:33:28;6.72;;;6.03;;
14933;SDS011;7560;51.364;12.384;2023-08-20T17:38:30;7.63;;;5.88;;
14933;SDS011;7560;51.364;12.384;2023-08-20T17:43:32;6.38;;;5.72;;
14933;SDS011;7560;51.364;12.384;2023-08-20T17:48:34;6.78;;;5.65;;
14933;SDS011;7560;51.364;12.384;2023-08-20T17:53:35;6.53;;;5.50;;
14933;SDS011;7560;51.364;12.384;2023-08-20T17:58:37;6.65;;;5.60;;
14933;SDS011;7560;51.364;12.384;2023-08-20T18:03:39;6.82;;;6.00;;
14933;SDS011;7560;51.364;12.384;2023-08-20T18:08:41;7.35;;;6.65;;
14933;SDS011;7560;51.364;12.384;2023-08-20T18:13:43;6.57;;;5.65;;
14933;SDS011;7560;51.364;12.384;2023-08-20T18:18:45;23.73;;;11.82;;
14933;SDS011;7560;51.364;12.384;2023-08-20T18:23:46;16.35;;;11.32;;
14933;SDS011;7560;51.364;12.384;2023-08-20T18:28:48;8.77;;;7.57;;
14933;SDS011;7560;51.364;12.384;2023-08-20T18:33:50;8.77;;;6.80;;
14933;SDS011;7560;51.364;12.384;2023-08-20T18:38:51;8.32;;;6.80;;
14933;SDS011;7560;51.364;12.384;2023-08-20T18:43:53;9.43;;;6.43;;
14933;SDS011;7560;51.364;12.384;2023-08-20T18:48:55;7.47;;;6.47;;
14933;SDS011;7560;51.364;12.384;2023-08-20T18:53:57;10.25;;;6.63;;
14933;SDS011;7560;51.364;12.384;2023-08-20T18:58:59;11.15;;;8.20;;
14933;SDS011;7560;51.364;12.384;2023-08-20T19:04:01;9.75;;;7.70;;
14933;SDS011;7560;51.364;12.384;2023-08-20T19:09:03;11.07;;;7.40;;
14933;SDS011;7560;51.364;12.384;2023-08-20T19:14:08;7.63;;;6.82;;
14933;SDS011;7560;51.364;12.384;2023-08-20T19:19:10;9.23;;;6.88;;
14933;SDS011;7560;51.364;12.384;2023-08-20T19:24:12;9.98;;;7.43;;
14933;SDS011;7560;51.364;12.384;2023-08-20T19:29:14;10.98;;;7.45;;
14933;SDS011;7560;51.364;12.384;2023-08-20T19:34:15;9.63;;;7.40;;
14933;SDS011;7560;51.364;12.384;2023-08-20T19:39:17;8.93;;;7.30;;
14933;SDS011;7560;51.364;12.384;2023-08-20T19:44:19;8.95;;;7.40;;
14933;SDS011;7560;51.364;12.384;2023-08-20T19:49:21;9.98;;;6.80;;
14933;SDS011;7560;51.364;12.384;2023-08-20T19:54:22;9.18;;;7.50;;
14933;SDS011;7560;51.364;12.384;2023-08-20T19:59:24;10.05;;;7.47;;
14933;SDS011;7560;51.364;12.384;2023-08-20T20:04:26;10.20;;;7.55;;
14933;SDS011;7560;51.364;12.384;2023-08-20T20:09:29;8.48;;;7.57;;
14933;SDS011;7560;51.364;12.384;2023-08-20T20:14:31;9.85;;;8.85;;
14933;SDS011;7560;51.364;12.384;2023-08-20T20:19:33;9.60;;;7.72;;
14933;SDS011;7560;51.364;12.384;2023-08-20T20:24:34;10.13;;;8.10;;
14933;SDS011;7560;51.364;12.384;2023-08-20T20:29:36;10.13;;;7.68;;
14933;SDS011;7560;51.364;12.384;2023-08-20T20:34:38;8.50;;;6.72;;
14933;SDS011;7560;51.364;12.384;2023-08-20T20:39:40;8.35;;;5.38;;
14933;SDS011;7560;51.364;12.384;2023-08-20T20:44:42;6.30;;;5.40;;
14933;SDS011;7560;51.364;12.384;2023-08-20T20:49:44;6.20;;;4.97;;
14933;SDS011;7560;51.364;12.384;2023-08-20T20:54:46;7.32;;;4.97;;
14933;SDS011;7560;51.364;12.384;2023-08-20T20:59:48;9.77;;;4.90;;
14933;SDS011;7560;51.364;12.384;2023-08-20T21:04:50;5.75;;;4.63;;
14933;SDS011;7560;51.364;12.384;2023-08-20T21:09:51;5.07;;;4.57;;
14933;SDS011;7560;51.364;12.384;2023-08-20T21:14:54;5.63;;;4.15;;
14933;SDS011;7560;51.364;12.384;2023-08-20T21:19:56;6.25;;;4.78;;
14933;SDS011;7560;51.364;12.384;2023-08-20T21:24:59;4.60;;;4.20;;
14933;SDS011;7560;51.364;12.384;2023-08-20T21:30:01;7.28;;;5.25;;
14933;SDS011;7560;51.364;12.384;2023-08-20T21:35:03;5.38;;;4.80;;
14933;SDS011;7560;51.364;12.384;2023-08-20T21:40:06;5.53;;;4.60;;
14933;SDS011;7560;51.364;12.384;2023-08-20T21:45:09;7.15;;;5.45;;
14933;SDS011;7560;51.364;12.384;2023-08-20T21:50:11;6.50;;;4.95;;
14933;SDS011;7560;51.364;12.384;2023-08-20T21:55:13;6.72;;;4.95;;
14933;SDS011;7560;51.364;12.384;2023-08-20T22:00:15;6.03;;;4.90;;
14933;SDS011;7560;51.364;12.384;2023-08-20T22:05:19;6.63;;;4.82;;
14933;SDS011;7560;51.364;12.384;2023-08-20T22:10:22;5.43;;;4.85;;
14933;SDS011;7560;51.364;12.384;2023-08-20T22:15:23;6.93;;;4.78;;
14933;SDS011;7560;51.364;12.384;2023-08-20T22:20:25;5.20;;;4.43;;
14933;SDS011;7560;51.364;12.384;2023-08-20T22:25:27;5.32;;;4.40;;
14933;SDS011;7560;51.364;12.384;2023-08-20T22:30:29;6.35;;;4.88;;
14933;SDS011;7560;51.364;12.384;2023-08-20T22:35:31;5.60;;;4.65;;
14933;SDS011;7560;51.364;12.384;2023-08-20T22:40:36;5.10;;;4.60;;
14933;SDS011;7560;51.364;12.384;2023-08-20T22:45:39;6.15;;;4.32;;
14933;SDS011;7560;51.364;12.384;2023-08-20T22:50:41;5.15;;;4.65;;
14933;SDS011;7560;51.364;12.384;2023-08-20T22:55:48;5.22;;;4.70;;
14933;SDS011;7560;51.364;12.384;2023-08-20T23:00:53;6.63;;;5.07;;
14933;SDS011;7560;51.364;12.384;2023-08-20T23:05:55;4.70;;;4.30;;
14933;SDS011;7560;51.364;12.384;2023-08-20T23:10:57;7.00;;;4.55;;
14933;SDS011;7560;51.364;12.384;2023-08-20T23:15:59;5.75;;;4.85;;
14933;SDS011;7560;51.364;12.384;2023-08-20T23:21:00;5.50;;;4.20;;
14933;SDS011;7560;51.364;12.384;2023-08-20T23:26:03;5.90;;;4.88;;
14933;SDS011;7560;51.364;12.384;2023-08-20T23:31:05;7.65;;;4.80;;
14933;SDS011;7560;51.364;12.384;2023-08-20T23:36:07;6.78;;;4.68;;
14933;SDS011;7560;51.364;12.384;2023-08-20T23:41:09;5.95;;;5.07;;
14933;SDS011;7560;51.364;12.384;2023-08-20T23:46:11;6.22;;;4.50;;
14933;SDS011;7560;51.364;12.384;2023-08-20T23:51:12;7.63;;;4.65;;
14933;SDS011;7560;51.364;12.384;2023-08-20T23:56:14;5.65;;;4.47;;
